createdAt,value
2024-04-17T00:01:31.104Z,8.00
2024-04-17T00:04:00.792Z,7.90
2024-04-17T00:06:27.859Z,7.90
2024-04-17T00:08:57.418Z,7.80
2024-04-17T00:11:25.233Z,7.80
2024-04-17T00:13:54.913Z,7.80
2024-04-17T00:16:21.979Z,7.80
2024-04-17T00:18:54.215Z,7.80
2024-04-17T00:21:21.231Z,7.80
2024-04-17T00:23:50.788Z,7.80
2024-04-17T00:26:17.810Z,7.80
2024-04-17T00:28:47.420Z,7.80
2024-04-17T00:31:15.476Z,7.70
2024-04-17T00:33:45.304Z,7.70
2024-04-17T00:36:14.931Z,7.70
2024-04-17T00:38:44.519Z,7.70
2024-04-17T00:41:12.777Z,7.70
2024-04-17T00:43:42.381Z,7.70
2024-04-17T00:46:10.222Z,7.70
2024-04-17T00:48:39.826Z,7.80
2024-04-17T00:51:06.803Z,7.80
2024-04-17T00:53:39.232Z,7.70
2024-04-17T00:56:07.076Z,7.80
2024-04-17T00:58:37.102Z,7.80
2024-04-17T01:01:04.413Z,7.80
2024-04-17T01:03:34.283Z,7.80
2024-04-17T01:06:01.397Z,7.80
2024-04-17T01:08:30.994Z,7.70
2024-04-17T01:11:04.131Z,7.70
2024-04-17T01:13:33.985Z,7.80
2024-04-17T01:16:01.057Z,7.80
2024-04-17T01:18:30.701Z,7.80
2024-04-17T01:20:57.794Z,7.90
2024-04-17T01:23:27.401Z,7.90
2024-04-17T01:25:57.062Z,7.90
2024-04-17T01:28:26.834Z,8.00
2024-04-17T01:30:53.866Z,8.00
2024-04-17T01:33:23.509Z,8.00
2024-04-17T01:35:50.582Z,8.00
2024-04-17T01:38:20.178Z,8.00
2024-04-17T01:40:47.219Z,8.10
2024-04-17T01:43:19.486Z,8.10
2024-04-17T01:45:46.928Z,8.10
2024-04-17T01:48:16.624Z,8.10
2024-04-17T01:50:43.742Z,8.10
2024-04-17T01:53:13.403Z,8.10
2024-04-17T01:55:40.436Z,8.10
2024-04-17T01:58:10.063Z,8.00
2024-04-17T02:00:39.700Z,8.00
2024-04-17T02:03:10.727Z,8.00
2024-04-17T02:05:37.899Z,8.00
2024-04-17T02:08:08.115Z,8.00
2024-04-17T02:10:35.169Z,7.90
2024-04-17T02:13:04.783Z,7.90
2024-04-17T02:15:32.712Z,7.90
2024-04-17T02:18:05.012Z,7.90
2024-04-17T02:20:32.099Z,7.90
2024-04-17T02:23:01.713Z,7.90
2024-04-17T02:25:28.782Z,7.90
2024-04-17T02:27:58.374Z,7.90
2024-04-17T02:30:25.451Z,8.00
2024-04-17T02:32:55.144Z,8.00
2024-04-17T02:35:27.399Z,8.00
2024-04-17T02:37:54.499Z,8.00
2024-04-17T02:40:24.190Z,8.00
2024-04-17T02:42:51.226Z,8.00
2024-04-17T02:45:20.849Z,8.00
2024-04-17T02:47:48.003Z,8.00
2024-04-17T02:50:17.701Z,8.00
2024-04-17T02:52:47.376Z,8.00
2024-04-17T02:55:17.107Z,8.00
2024-04-17T02:57:44.152Z,8.00
2024-04-17T03:00:18.687Z,8.00
2024-04-17T03:02:45.726Z,8.00
2024-04-17T03:05:15.390Z,8.00
2024-04-17T03:07:45.647Z,8.00
2024-04-17T03:10:18.065Z,8.10
2024-04-17T03:12:45.079Z,8.10
2024-04-17T03:15:14.656Z,8.00
2024-04-17T03:17:41.748Z,8.10
2024-04-17T03:20:12.106Z,8.10
2024-04-17T03:22:39.173Z,8.10
2024-04-17T03:25:09.066Z,8.00
2024-04-17T03:27:38.686Z,8.10
2024-04-17T03:30:09.551Z,8.10
2024-04-17T03:32:36.551Z,8.10
2024-04-17T03:35:06.296Z,8.10
2024-04-17T03:37:35.897Z,8.10
2024-04-17T03:40:05.965Z,8.20
2024-04-17T03:42:35.739Z,8.20
2024-04-17T03:45:08.358Z,8.10
2024-04-17T03:47:40.393Z,8.10
2024-04-17T03:50:07.512Z,8.10
2024-04-17T03:52:37.134Z,8.10
2024-04-17T03:55:04.660Z,8.00
2024-04-17T03:57:34.363Z,8.00
2024-04-17T04:00:01.491Z,8.00
2024-04-17T04:02:33.747Z,8.00
2024-04-17T04:05:00.852Z,8.00
2024-04-17T04:07:30.490Z,8.00
2024-04-17T04:09:57.501Z,8.00
2024-04-17T04:12:27.338Z,8.00
2024-04-17T04:14:54.401Z,8.00
2024-04-17T04:17:24.097Z,8.00
2024-04-17T04:19:53.878Z,8.00
2024-04-17T04:22:23.643Z,8.00
2024-04-17T04:24:50.692Z,8.00
2024-04-17T04:27:20.296Z,8.00
2024-04-17T04:29:47.398Z,8.00
2024-04-17T04:32:17.023Z,7.90
2024-04-17T04:34:44.029Z,7.90
2024-04-17T04:37:16.233Z,7.80
2024-04-17T04:39:43.273Z,7.80
2024-04-17T04:42:12.910Z,7.90
2024-04-17T04:44:39.883Z,7.90
2024-04-17T04:47:09.598Z,7.90
2024-04-17T04:49:37.358Z,7.90
2024-04-17T04:52:07.243Z,7.90
2024-04-17T04:54:36.986Z,7.90
2024-04-17T04:57:06.923Z,7.90
2024-04-17T04:59:33.907Z,7.90
2024-04-17T05:02:03.591Z,7.90
2024-04-17T05:04:30.837Z,7.90
2024-04-17T05:07:00.535Z,7.90
2024-04-17T05:09:28.303Z,7.90
2024-04-17T05:12:00.578Z,7.90
2024-04-17T05:14:27.665Z,7.80
2024-04-17T05:16:57.401Z,7.80
2024-04-17T05:19:24.503Z,7.80
2024-04-17T05:21:54.239Z,7.80
2024-04-17T05:24:21.315Z,7.80
2024-04-17T05:26:50.881Z,7.90
2024-04-17T05:29:20.713Z,7.90
2024-04-17T05:31:50.359Z,8.00
2024-04-17T05:34:17.475Z,8.00
2024-04-17T05:36:47.063Z,8.10
2024-04-17T05:39:14.072Z,8.10
2024-04-17T05:41:43.646Z,8.20
2024-04-17T05:44:10.654Z,8.20
2024-04-17T05:46:43.026Z,8.30
2024-04-17T05:49:10.171Z,8.30
2024-04-17T05:51:39.753Z,8.40
2024-04-17T05:54:06.681Z,8.30
2024-04-17T05:56:36.274Z,8.30
2024-04-17T05:59:03.282Z,8.30
2024-04-17T06:01:32.890Z,8.30
2024-04-17T06:04:02.544Z,8.40
2024-04-17T06:06:32.145Z,8.50
2024-04-17T06:08:59.128Z,8.50
2024-04-17T06:11:28.882Z,8.50
2024-04-17T06:13:56.845Z,8.50
2024-04-17T06:16:26.482Z,8.50
2024-04-17T06:18:53.552Z,8.50
2024-04-17T06:21:25.912Z,8.50
2024-04-17T06:23:52.889Z,8.50
2024-04-17T06:26:22.545Z,8.40
2024-04-17T06:28:49.591Z,8.40
2024-04-17T06:31:19.271Z,8.40
2024-04-17T06:33:46.310Z,8.30
2024-04-17T06:36:16.205Z,8.30
2024-04-17T06:38:45.815Z,8.30
2024-04-17T06:41:15.602Z,8.30
2024-04-17T06:43:42.652Z,8.30
2024-04-17T06:46:12.338Z,8.20
2024-04-17T06:48:39.422Z,8.20
2024-04-17T06:51:09.064Z,8.30
2024-04-17T06:53:38.479Z,8.40
2024-04-17T06:56:12.126Z,8.40
2024-04-17T06:58:39.576Z,8.40
2024-04-17T07:01:09.226Z,8.50
2024-04-17T07:03:36.492Z,8.60
2024-04-17T07:06:06.260Z,8.60
2024-04-17T07:08:33.274Z,8.60
2024-04-17T07:11:02.890Z,8.70
2024-04-17T07:13:35.557Z,8.80
2024-04-17T07:16:02.571Z,8.90
2024-04-17T07:18:32.208Z,9.10
2024-04-17T07:20:59.265Z,9.30
2024-04-17T07:23:28.900Z,9.50
2024-04-17T07:25:55.989Z,9.50
2024-04-17T07:28:25.787Z,9.40
2024-04-17T07:30:55.431Z,9.40
2024-04-17T07:33:25.203Z,9.50
2024-04-17T07:35:58.544Z,9.50
2024-04-17T07:38:29.728Z,9.50
2024-04-17T07:40:57.903Z,9.50
2024-04-17T07:43:31.714Z,9.60
2024-04-17T07:46:01.668Z,9.60
2024-04-17T07:48:31.659Z,9.60
2024-04-17T07:50:58.732Z,9.70
2024-04-17T07:53:28.528Z,9.70
2024-04-17T07:55:57.328Z,9.80
2024-04-17T07:58:26.982Z,9.70
2024-04-17T08:00:54.065Z,9.70
2024-04-17T08:03:26.377Z,9.70
2024-04-17T08:05:53.456Z,10.10
2024-04-17T08:08:23.092Z,10.30
2024-04-17T08:10:50.198Z,10.30
2024-04-17T08:13:19.874Z,10.30
2024-04-17T08:15:50.510Z,10.20
2024-04-17T08:18:20.220Z,10.20
2024-04-17T08:20:55.806Z,10.10
2024-04-17T08:23:26.962Z,10.00
2024-04-17T08:25:55.474Z,9.90
2024-04-17T08:28:25.255Z,10.00
2024-04-17T08:30:54.157Z,10.10
2024-04-17T08:33:24.230Z,10.10
2024-04-17T08:35:54.032Z,10.10
2024-04-17T08:38:23.754Z,10.10
2024-04-17T08:40:52.366Z,10.20
2024-04-17T08:43:28.070Z,10.30
2024-04-17T08:45:55.858Z,10.60
2024-04-17T08:48:27.540Z,10.80
2024-04-17T08:50:57.470Z,11.00
2024-04-17T08:53:27.262Z,11.20
2024-04-17T08:55:54.333Z,11.30
2024-04-17T08:58:23.935Z,11.30
2024-04-17T09:00:51.976Z,11.30
2024-04-17T09:03:25.484Z,11.40
2024-04-17T09:05:57.615Z,11.30
2024-04-17T09:08:27.950Z,11.30
2024-04-17T09:10:56.152Z,11.50
2024-04-17T09:13:26.098Z,11.60
2024-04-17T09:15:53.842Z,11.80
2024-04-17T09:18:28.257Z,11.90
2024-04-17T09:20:58.466Z,12.00
2024-04-17T09:23:28.148Z,12.10
2024-04-17T09:25:56.068Z,12.40
2024-04-17T09:28:26.240Z,12.60
2024-04-17T09:30:53.360Z,12.80
2024-04-17T09:33:23.101Z,13.00
2024-04-17T09:35:52.699Z,13.10
2024-04-17T09:38:26.433Z,13.20
2024-04-17T09:40:53.586Z,13.10
2024-04-17T09:43:29.646Z,13.20
2024-04-17T09:45:59.763Z,13.40
2024-04-17T09:48:29.700Z,13.60
2024-04-17T09:51:00.102Z,14.10
2024-04-17T09:53:37.905Z,14.40
2024-04-17T09:56:08.110Z,14.20
2024-04-17T09:58:38.591Z,13.70
2024-04-17T10:01:07.714Z,13.20
2024-04-17T10:03:37.976Z,12.80
2024-04-17T10:06:05.591Z,12.40
2024-04-17T10:08:39.085Z,12.20
2024-04-17T10:11:06.240Z,12.00
2024-04-17T10:13:36.206Z,12.30
2024-04-17T10:16:05.059Z,13.00
2024-04-17T10:18:34.699Z,13.80
2024-04-17T10:21:01.793Z,14.30
2024-04-17T10:23:31.414Z,14.10
2024-04-17T10:26:01.154Z,13.80
2024-04-17T10:28:30.862Z,13.50
2024-04-17T10:30:57.996Z,13.30
2024-04-17T10:33:31.004Z,13.20
2024-04-17T10:35:58.464Z,13.10
2024-04-17T10:38:32.121Z,13.10
2024-04-17T10:41:05.195Z,13.30
2024-04-17T10:43:36.402Z,14.00
2024-04-17T10:46:06.287Z,14.50
2024-04-17T10:48:45.126Z,14.50
2024-04-17T10:51:14.012Z,14.30
2024-04-17T10:53:44.178Z,14.10
2024-04-17T10:56:15.822Z,13.90
2024-04-17T10:58:46.049Z,14.00
2024-04-17T11:01:13.475Z,14.20
2024-04-17T11:03:43.752Z,14.30
2024-04-17T11:06:11.725Z,14.10
2024-04-17T11:08:54.573Z,14.10
2024-04-17T11:11:28.453Z,14.20
2024-04-17T11:13:58.214Z,14.50
2024-04-17T11:16:25.387Z,14.80
2024-04-17T11:18:55.105Z,15.30
2024-04-17T11:21:23.311Z,15.60
2024-04-17T11:23:52.982Z,15.90
2024-04-17T11:26:20.088Z,16.20
2024-04-17T11:28:52.655Z,16.30
2024-04-17T11:31:19.880Z,16.20
2024-04-17T11:33:49.555Z,16.10
2024-04-17T11:36:16.900Z,16.10
2024-04-17T11:38:46.709Z,16.60
2024-04-17T11:41:15.494Z,16.80
2024-04-17T11:43:46.302Z,17.00
2024-04-17T11:46:16.588Z,17.30
2024-04-17T11:48:46.457Z,17.40
2024-04-17T11:51:13.502Z,17.10
2024-04-17T11:53:43.070Z,16.60
2024-04-17T11:56:10.129Z,16.20
2024-04-17T11:58:40.000Z,15.90
2024-04-17T12:01:07.112Z,15.60
2024-04-17T12:03:39.769Z,15.50
2024-04-17T12:06:07.878Z,15.40
2024-04-17T12:08:37.691Z,15.40
2024-04-17T12:11:05.172Z,15.40
2024-04-17T12:13:35.247Z,15.40
2024-04-17T12:16:02.390Z,15.50
2024-04-17T12:18:32.229Z,15.40
2024-04-17T12:21:01.809Z,15.40
2024-04-17T12:23:31.666Z,15.20
2024-04-17T12:26:16.995Z,15.00
2024-04-17T12:28:46.648Z,14.70
2024-04-17T12:31:16.231Z,14.40
2024-04-17T12:33:45.954Z,14.20
2024-04-17T12:36:18.217Z,14.20
2024-04-17T12:38:47.838Z,14.30
2024-04-17T12:41:17.503Z,14.80
2024-04-17T12:43:48.051Z,15.40
2024-04-17T12:46:18.843Z,16.10
2024-04-17T12:48:49.713Z,16.00
2024-04-17T12:51:21.886Z,15.70
2024-04-17T12:53:51.450Z,15.20
2024-04-17T12:56:21.037Z,14.80
2024-04-17T12:58:48.052Z,14.80
2024-04-17T13:01:17.672Z,15.10
2024-04-17T13:03:44.825Z,15.40
2024-04-17T13:06:15.117Z,15.30
2024-04-17T13:08:44.711Z,15.50
2024-04-17T13:11:15.664Z,15.50
2024-04-17T13:13:43.160Z,15.40
2024-04-17T13:16:12.867Z,15.20
2024-04-17T13:18:40.852Z,14.80
2024-04-17T13:21:10.514Z,14.50
2024-04-17T13:23:37.660Z,14.30
2024-04-17T13:26:10.143Z,14.20
2024-04-17T13:28:37.252Z,14.40
2024-04-17T13:31:08.070Z,14.60
2024-04-17T13:33:36.229Z,14.60
2024-04-17T13:36:06.963Z,14.60
2024-04-17T13:38:34.068Z,14.70
2024-04-17T13:41:04.680Z,14.70
2024-04-17T13:43:34.678Z,14.60
2024-04-17T13:46:08.784Z,14.70
2024-04-17T13:48:36.097Z,14.70
2024-04-17T13:51:06.551Z,14.70
2024-04-17T13:53:33.594Z,14.60
2024-04-17T13:56:03.573Z,14.60
2024-04-17T13:58:34.039Z,14.60
2024-04-17T14:01:06.687Z,14.90
2024-04-17T14:03:33.798Z,15.50
2024-04-17T14:06:03.724Z,16.10
2024-04-17T14:08:30.753Z,16.60
2024-04-17T14:11:03.597Z,17.00
2024-04-17T14:13:34.807Z,16.80
2024-04-17T14:16:07.255Z,16.60
2024-04-17T14:18:34.472Z,16.40
2024-04-17T14:21:07.664Z,16.50
2024-04-17T14:23:34.949Z,16.50
2024-04-17T14:26:05.139Z,16.10
2024-04-17T14:28:34.808Z,15.50
2024-04-17T14:31:05.019Z,15.10
2024-04-17T14:33:33.142Z,14.60
2024-04-17T14:36:06.247Z,14.40
2024-04-17T14:38:33.557Z,14.20
2024-04-17T14:41:04.892Z,14.00
2024-04-17T14:43:36.524Z,13.90
2024-04-17T14:46:07.257Z,14.10
2024-04-17T14:48:35.234Z,14.20
2024-04-17T14:51:06.458Z,14.10
2024-04-17T14:53:34.262Z,13.90
2024-04-17T14:56:04.679Z,13.60
2024-04-17T14:58:35.239Z,13.50
2024-04-17T15:01:07.812Z,13.40
2024-04-17T15:03:36.175Z,13.30
2024-04-17T15:06:12.237Z,13.30
2024-04-17T15:08:41.297Z,13.20
2024-04-17T15:11:11.962Z,13.00
2024-04-17T15:13:42.972Z,12.90
2024-04-17T15:16:13.396Z,12.80
2024-04-17T15:18:40.846Z,12.70
2024-04-17T15:21:11.179Z,12.60
2024-04-17T15:23:39.444Z,12.60
2024-04-17T15:26:09.793Z,12.60
2024-04-17T15:28:37.185Z,12.60
2024-04-17T15:31:13.293Z,12.50
2024-04-17T15:33:41.150Z,12.50
2024-04-17T15:36:11.243Z,12.50
2024-04-17T15:38:38.295Z,12.40
2024-04-17T15:41:08.593Z,12.40
2024-04-17T15:43:36.080Z,12.30
2024-04-17T15:46:13.364Z,12.30
2024-04-17T15:48:40.650Z,12.30
2024-04-17T15:51:11.017Z,12.30
2024-04-17T15:53:38.595Z,12.30
2024-04-17T15:56:15.518Z,12.30
2024-04-17T15:58:42.556Z,12.30
2024-04-17T16:01:15.748Z,12.30
2024-04-17T16:03:43.294Z,12.40
2024-04-17T16:06:13.740Z,12.50
2024-04-17T16:08:40.929Z,12.50
2024-04-17T16:11:10.685Z,12.60
2024-04-17T16:13:38.334Z,12.60
2024-04-17T16:16:10.330Z,12.80
2024-04-17T16:18:40.336Z,13.10
2024-04-17T16:21:13.472Z,13.40
2024-04-17T16:23:40.545Z,13.70
2024-04-17T16:26:14.316Z,14.10
2024-04-17T16:28:46.824Z,14.40
2024-04-17T16:31:14.155Z,14.80
2024-04-17T16:33:47.333Z,15.10
2024-04-17T16:36:14.647Z,15.20
2024-04-17T16:38:44.287Z,15.30
2024-04-17T16:41:11.695Z,15.40
2024-04-17T16:43:41.422Z,15.30
2024-04-17T16:46:08.856Z,15.30
2024-04-17T16:48:40.664Z,15.10
2024-04-17T16:51:11.621Z,14.90
2024-04-17T16:53:41.644Z,14.60
2024-04-17T16:56:09.023Z,14.20
2024-04-17T16:58:41.087Z,13.80
2024-04-17T17:01:10.997Z,13.40
2024-04-17T17:03:38.516Z,13.10
2024-04-17T17:06:09.412Z,12.90
2024-04-17T17:08:39.096Z,12.80
2024-04-17T17:11:09.034Z,12.60
2024-04-17T17:13:36.376Z,12.50
2024-04-17T17:16:07.232Z,12.40
2024-04-17T17:18:35.020Z,12.20
2024-04-17T17:21:08.029Z,12.20
2024-04-17T17:23:35.213Z,12.00
2024-04-17T17:26:13.632Z,11.90
2024-04-17T17:28:41.485Z,11.80
2024-04-17T17:31:11.506Z,11.70
2024-04-17T17:33:38.708Z,11.60
2024-04-17T17:36:14.139Z,11.50
2024-04-17T17:38:41.766Z,11.40
2024-04-17T17:41:14.752Z,11.30
2024-04-17T17:43:43.591Z,11.30
2024-04-17T17:46:13.685Z,11.20
2024-04-17T17:48:42.227Z,11.20
2024-04-17T17:51:12.094Z,11.10
2024-04-17T17:53:40.388Z,11.10
2024-04-17T17:56:13.281Z,11.00
2024-04-17T17:58:43.581Z,11.00
2024-04-17T18:01:17.240Z,11.00
2024-04-17T18:03:46.798Z,10.90
2024-04-17T18:06:16.652Z,10.90
2024-04-17T18:08:43.778Z,10.80
2024-04-17T18:11:19.159Z,10.80
2024-04-17T18:13:46.450Z,10.80
2024-04-17T18:16:25.636Z,10.70
2024-04-17T18:19:00.097Z,10.70
2024-04-17T18:21:29.992Z,10.70
2024-04-17T18:23:57.508Z,10.60
2024-04-17T18:26:30.203Z,10.50
2024-04-17T18:28:57.438Z,10.40
2024-04-17T18:31:27.053Z,10.30
2024-04-17T18:33:54.407Z,10.30
2024-04-17T18:36:29.349Z,10.20
2024-04-17T18:38:57.384Z,10.20
2024-04-17T18:41:29.675Z,10.10
2024-04-17T18:43:57.542Z,10.10
2024-04-17T18:46:27.834Z,10.00
2024-04-17T18:48:56.029Z,10.00
2024-04-17T18:51:25.917Z,9.90
2024-04-17T18:53:53.233Z,9.90
2024-04-17T18:56:23.858Z,9.80
2024-04-17T18:58:53.558Z,9.70
2024-04-17T19:01:24.362Z,9.60
2024-04-17T19:03:52.158Z,9.50
2024-04-17T19:06:22.303Z,9.40
2024-04-17T19:08:50.374Z,9.30
2024-04-17T19:11:20.301Z,9.20
2024-04-17T19:13:47.460Z,9.20
2024-04-17T19:16:21.149Z,9.20
2024-04-17T19:18:49.384Z,9.20
2024-04-17T19:21:19.502Z,9.10
2024-04-17T19:23:46.971Z,9.00
2024-04-17T19:26:17.058Z,9.00
2024-04-17T19:28:44.811Z,8.90
2024-04-17T19:31:14.765Z,8.90
2024-04-17T19:33:48.727Z,8.90
2024-04-17T19:36:19.073Z,8.90
2024-04-17T19:38:48.485Z,8.90
2024-04-17T19:41:18.162Z,8.90
2024-04-17T19:43:46.276Z,8.90
2024-04-17T19:46:16.383Z,8.90
2024-04-17T19:48:46.428Z,8.90
2024-04-17T19:51:17.837Z,8.90
2024-04-17T19:53:45.149Z,8.80
2024-04-17T19:56:15.567Z,8.80
2024-04-17T19:58:42.649Z,8.80
2024-04-17T20:01:13.868Z,8.80
2024-04-17T20:03:41.502Z,8.70
2024-04-17T20:06:14.262Z,8.70
2024-04-17T20:08:42.070Z,8.70
2024-04-17T20:11:12.795Z,8.60
2024-04-17T20:13:40.092Z,8.50
2024-04-17T20:16:11.029Z,8.50
2024-04-17T20:18:38.419Z,8.50
2024-04-17T20:21:09.645Z,8.50
2024-04-17T20:23:40.099Z,8.50
2024-04-17T20:26:11.264Z,8.50
2024-04-17T20:28:44.399Z,8.50
2024-04-17T20:31:21.462Z,8.50
2024-04-17T20:33:48.707Z,8.40
2024-04-17T20:36:19.379Z,8.40
2024-04-17T20:38:49.795Z,8.40
2024-04-17T20:41:19.467Z,8.40
2024-04-17T20:43:46.489Z,8.40
2024-04-17T20:46:16.908Z,8.40
2024-04-17T20:48:44.595Z,8.40
2024-04-17T20:51:14.574Z,8.50
2024-04-17T20:53:42.166Z,8.50
2024-04-17T20:56:14.587Z,8.40
2024-04-17T20:58:41.599Z,8.40
2024-04-17T21:01:12.042Z,8.40
2024-04-17T21:03:39.591Z,8.30
2024-04-17T21:06:10.452Z,8.30
2024-04-17T21:08:37.803Z,8.30
2024-04-17T21:11:08.498Z,8.20
2024-04-17T21:13:38.403Z,8.20
2024-04-17T21:16:09.410Z,8.20
2024-04-17T21:18:37.104Z,8.10
2024-04-17T21:21:07.187Z,8.10
2024-04-17T21:23:34.984Z,8.10
2024-04-17T21:26:04.612Z,8.10
2024-04-17T21:28:31.975Z,8.00
2024-04-17T21:31:04.262Z,8.00
2024-04-17T21:33:31.386Z,8.00
2024-04-17T21:36:01.018Z,7.90
2024-04-17T21:38:28.157Z,7.90
2024-04-17T21:40:58.814Z,7.80
2024-04-17T21:43:26.132Z,7.80
2024-04-17T21:45:56.118Z,7.70
2024-04-17T21:48:25.797Z,7.70
2024-04-17T21:50:56.745Z,7.60
2024-04-17T21:53:23.905Z,7.60
2024-04-17T21:56:00.420Z,7.60
2024-04-17T21:58:27.453Z,7.60
2024-04-17T22:00:58.331Z,7.60
2024-04-17T22:03:28.403Z,7.60
2024-04-17T22:06:00.523Z,7.50
2024-04-17T22:08:28.730Z,7.50
2024-04-17T22:10:59.403Z,7.50
2024-04-17T22:13:26.501Z,7.50
2024-04-17T22:15:56.157Z,7.40
2024-04-17T22:18:23.205Z,7.40
2024-04-17T22:20:55.763Z,7.40
2024-04-17T22:23:23.002Z,7.40
2024-04-17T22:25:52.735Z,7.40
2024-04-17T22:28:19.732Z,7.40
2024-04-17T22:30:49.420Z,7.30
2024-04-17T22:33:16.537Z,7.30
2024-04-17T22:35:46.272Z,7.30
2024-04-17T22:38:16.034Z,7.40
2024-04-17T22:40:45.867Z,7.40
2024-04-17T22:43:12.891Z,7.50
2024-04-17T22:45:42.582Z,7.60
2024-04-17T22:48:09.706Z,7.60
2024-04-17T22:50:39.351Z,7.60
2024-04-17T22:53:06.386Z,7.70
2024-04-17T22:55:38.586Z,7.70
2024-04-17T22:58:05.610Z,7.70
2024-04-17T23:00:35.222Z,7.80
2024-04-17T23:03:02.279Z,7.80
2024-04-17T23:05:32.146Z,7.80
2024-04-17T23:07:59.229Z,7.70
2024-04-17T23:10:28.848Z,7.80
2024-04-17T23:12:59.273Z,7.80
2024-04-17T23:15:29.124Z,7.80
2024-04-17T23:17:56.243Z,7.80
2024-04-17T23:20:25.925Z,7.90
2024-04-17T23:22:52.953Z,7.80
2024-04-17T23:25:22.580Z,7.90
2024-04-17T23:27:51.158Z,7.80
2024-04-17T23:30:23.615Z,7.90
2024-04-17T23:32:51.606Z,7.90
2024-04-17T23:35:21.373Z,7.90
2024-04-17T23:37:48.385Z,7.90
2024-04-17T23:40:18.037Z,7.90
2024-04-17T23:42:45.170Z,7.90
2024-04-17T23:45:14.937Z,7.90
2024-04-17T23:47:44.642Z,7.90
2024-04-17T23:50:14.291Z,7.90
2024-04-17T23:52:41.284Z,7.90
2024-04-17T23:55:10.885Z,7.80
2024-04-17T23:57:37.888Z,7.90
